createdAt,value
2018-05-03T00:01:48.395Z,1.50
2018-05-03T00:04:15.879Z,1.50
2018-05-03T00:06:43.355Z,1.90
2018-05-03T00:09:10.835Z,1.50
2018-05-03T00:11:38.356Z,2.10
2018-05-03T00:14:05.849Z,1.50
2018-05-03T00:16:33.337Z,1.17
2018-05-03T00:19:00.844Z,1.73
2018-05-03T00:21:28.337Z,1.80
2018-05-03T00:23:55.852Z,1.53
2018-05-03T00:26:23.329Z,1.70
2018-05-03T00:28:50.811Z,1.80
2018-05-03T00:31:18.281Z,1.50
2018-05-03T00:33:46.181Z,1.50
2018-05-03T00:36:13.664Z,1.70
2018-05-03T00:38:41.146Z,1.50
2018-05-03T00:41:08.648Z,1.63
2018-05-03T00:43:36.150Z,1.67
2018-05-03T00:46:03.679Z,1.80
2018-05-03T00:48:31.157Z,1.60
2018-05-03T00:50:58.638Z,1.47
2018-05-03T00:53:26.128Z,1.60
2018-05-03T00:55:53.601Z,1.80
2018-05-03T00:58:21.088Z,1.70
2018-05-03T01:00:48.581Z,1.50
2018-05-03T01:03:16.067Z,1.43
2018-05-03T01:05:43.959Z,1.60
2018-05-03T01:08:11.462Z,1.90
2018-05-03T01:10:38.945Z,1.63
2018-05-03T01:13:06.487Z,2.70
2018-05-03T01:15:33.976Z,1.77
2018-05-03T01:18:01.510Z,1.90
2018-05-03T01:20:29.058Z,1.67
2018-05-03T01:22:56.548Z,1.50
2018-05-03T01:25:24.027Z,1.77
2018-05-03T01:27:51.536Z,1.70
2018-05-03T01:30:19.008Z,1.60
2018-05-03T01:32:46.495Z,1.67
2018-05-03T01:35:19.855Z,1.70
2018-05-03T01:37:47.337Z,1.70
2018-05-03T01:40:14.854Z,1.40
2018-05-03T01:42:42.419Z,1.63
2018-05-03T01:45:09.910Z,1.50
2018-05-03T01:47:37.527Z,1.90
2018-05-03T01:50:05.037Z,1.70
2018-05-03T01:52:32.510Z,1.80
2018-05-03T01:54:59.976Z,1.77
2018-05-03T01:57:27.445Z,1.70
2018-05-03T01:59:54.916Z,1.80
2018-05-03T02:02:22.391Z,1.90
2018-05-03T02:04:49.896Z,1.40
2018-05-03T02:07:17.380Z,1.73
2018-05-03T02:09:45.010Z,1.40
2018-05-03T02:12:12.496Z,1.57
2018-05-03T02:14:39.976Z,1.67
2018-05-03T02:17:07.453Z,1.40
2018-05-03T02:19:34.987Z,1.87
2018-05-03T02:22:02.488Z,1.70
2018-05-03T02:24:29.955Z,1.80
2018-05-03T02:26:57.456Z,1.60
2018-05-03T02:29:24.924Z,1.83
2018-05-03T02:31:52.468Z,1.60
2018-05-03T02:34:19.954Z,1.77
2018-05-03T02:36:47.601Z,1.80
2018-05-03T02:39:15.088Z,1.47
2018-05-03T02:41:43.078Z,1.63
2018-05-03T02:44:10.548Z,1.40
2018-05-03T02:46:38.034Z,1.63
2018-05-03T02:49:05.532Z,1.13
2018-05-03T02:51:33.006Z,1.70
2018-05-03T02:54:00.501Z,1.60
2018-05-03T02:56:27.980Z,1.50
2018-05-03T02:59:01.393Z,1.63
2018-05-03T03:01:49.552Z,1.60
2018-05-03T03:04:28.718Z,1.57
2018-05-03T03:07:07.739Z,1.50
2018-05-03T03:09:45.660Z,1.87
2018-05-03T03:12:36.536Z,1.67
2018-05-03T03:15:15.575Z,1.40
2018-05-03T03:18:08.359Z,1.47
2018-05-03T03:20:42.508Z,1.67
2018-05-03T03:23:21.725Z,1.50
2018-05-03T03:26:00.957Z,1.20
2018-05-03T03:28:39.976Z,1.50
2018-05-03T03:31:19.192Z,1.40
2018-05-03T03:33:52.441Z,1.30
2018-05-03T03:36:26.224Z,1.37
2018-05-03T03:38:59.659Z,1.70
2018-05-03T03:41:33.101Z,1.43
2018-05-03T03:44:06.367Z,1.40
2018-05-03T03:46:33.900Z,1.50
2018-05-03T03:49:01.455Z,1.27
2018-05-03T03:51:28.983Z,1.20
2018-05-03T03:53:56.496Z,1.30
2018-05-03T03:56:24.057Z,1.40
2018-05-03T03:58:51.527Z,1.50
2018-05-03T04:01:19.003Z,1.50
2018-05-03T04:03:46.504Z,2.10
2018-05-03T04:06:13.991Z,1.40
2018-05-03T04:08:41.484Z,1.40
2018-05-03T04:11:08.973Z,1.23
2018-05-03T04:13:36.476Z,1.20
2018-05-03T04:16:03.993Z,2.73
2018-05-03T04:18:37.392Z,1.43
2018-05-03T04:21:10.808Z,1.40
2018-05-03T04:23:44.166Z,1.30
2018-05-03T04:26:11.934Z,1.20
2018-05-03T04:28:39.426Z,1.10
2018-05-03T04:31:06.949Z,1.40
2018-05-03T04:33:34.629Z,1.17
2018-05-03T04:36:02.127Z,1.20
2018-05-03T04:38:29.677Z,1.60
2018-05-03T04:40:58.101Z,1.50
2018-05-03T04:43:25.592Z,1.13
2018-05-03T04:45:53.065Z,1.10
2018-05-03T04:48:20.610Z,1.27
2018-05-03T04:50:48.145Z,1.23
2018-05-03T04:53:15.654Z,1.30
2018-05-03T04:55:43.160Z,1.20
2018-05-03T04:58:10.630Z,1.33
2018-05-03T05:00:38.127Z,1.97
2018-05-03T05:03:05.635Z,1.10
2018-05-03T05:05:33.109Z,1.20
2018-05-03T05:08:00.639Z,0.93
2018-05-03T05:10:28.200Z,1.30
2018-05-03T05:12:55.648Z,1.40
2018-05-03T05:15:23.128Z,1.60
2018-05-03T05:17:50.639Z,1.47
2018-05-03T05:20:18.168Z,1.20
2018-05-03T05:22:45.730Z,1.40
2018-05-03T05:25:13.225Z,1.40
2018-05-03T05:27:40.844Z,1.10
2018-05-03T05:30:08.333Z,1.50
2018-05-03T05:32:35.900Z,1.73
2018-05-03T05:35:03.456Z,1.40
2018-05-03T05:37:30.938Z,1.60
2018-05-03T05:39:58.491Z,1.47
2018-05-03T05:42:26.078Z,1.70
2018-05-03T05:44:53.557Z,1.40
2018-05-03T05:47:21.201Z,2.37
2018-05-03T05:49:49.006Z,1.50
2018-05-03T05:52:17.004Z,1.70
2018-05-03T05:54:44.479Z,1.80
2018-05-03T05:57:12.256Z,1.80
2018-05-03T05:59:40.785Z,1.90
2018-05-03T06:02:08.634Z,2.00
2018-05-03T06:04:36.306Z,1.93
2018-05-03T06:07:04.114Z,2.07
2018-05-03T06:09:31.625Z,2.23
2018-05-03T06:11:59.112Z,1.77
2018-05-03T06:14:26.585Z,1.83
2018-05-03T06:16:54.063Z,2.27
2018-05-03T06:19:21.558Z,2.20
2018-05-03T06:21:49.042Z,2.00
2018-05-03T06:24:16.891Z,5.73
2018-05-03T06:26:44.417Z,2.43
2018-05-03T06:29:11.905Z,2.50
2018-05-03T06:31:39.427Z,2.00
2018-05-03T06:34:06.920Z,2.43
2018-05-03T06:36:34.398Z,2.13
2018-05-03T06:39:01.925Z,1.90
2018-05-03T06:41:29.544Z,2.03
2018-05-03T06:43:57.047Z,1.97
2018-05-03T06:46:24.517Z,2.33
2018-05-03T06:48:52.017Z,2.33
2018-05-03T06:51:19.512Z,2.70
2018-05-03T06:53:46.994Z,2.80
2018-05-03T06:56:15.088Z,2.83
2018-05-03T06:58:42.573Z,2.93
2018-05-03T07:01:10.082Z,2.60
2018-05-03T07:03:37.579Z,3.30
2018-05-03T07:06:05.067Z,3.07
2018-05-03T07:08:32.542Z,2.63
2018-05-03T07:11:00.060Z,2.57
2018-05-03T07:13:27.551Z,2.73
2018-05-03T07:15:55.019Z,2.90
2018-05-03T07:18:22.512Z,3.33
2018-05-03T07:20:50.011Z,2.87
2018-05-03T07:23:17.493Z,3.60
2018-05-03T07:25:44.972Z,2.80
2018-05-03T07:28:12.500Z,2.37
2018-05-03T07:30:39.987Z,4.33
2018-05-03T07:33:07.475Z,3.10
2018-05-03T07:35:34.957Z,5.00
2018-05-03T07:38:02.477Z,3.13
2018-05-03T07:40:29.956Z,3.50
2018-05-03T07:42:57.479Z,3.60
2018-05-03T07:45:24.951Z,3.00
2018-05-03T07:47:52.437Z,3.90
2018-05-03T07:50:19.922Z,3.60
2018-05-03T07:52:47.429Z,4.00
2018-05-03T07:55:15.127Z,3.50
2018-05-03T07:57:42.626Z,3.57
2018-05-03T08:00:10.156Z,3.80
2018-05-03T08:02:37.634Z,3.43
2018-05-03T08:05:05.158Z,3.20
2018-05-03T08:07:32.659Z,3.37
2018-05-03T08:10:00.195Z,3.03
2018-05-03T08:12:27.690Z,3.80
2018-05-03T08:14:55.164Z,3.50
2018-05-03T08:17:22.651Z,3.97
2018-05-03T08:19:50.134Z,3.60
2018-05-03T08:22:17.723Z,3.73
2018-05-03T08:24:45.218Z,3.90
2018-05-03T08:27:12.718Z,3.37
2018-05-03T08:29:40.190Z,3.13
2018-05-03T08:32:07.945Z,4.47
2018-05-03T08:34:35.488Z,3.60
2018-05-03T08:37:02.983Z,3.90
2018-05-03T08:39:30.474Z,3.50
2018-05-03T08:41:57.951Z,3.80
2018-05-03T08:44:25.439Z,4.00
2018-05-03T08:46:52.930Z,4.00
2018-05-03T08:49:20.433Z,3.80
2018-05-03T08:51:48.013Z,3.97
2018-05-03T08:54:15.545Z,3.77
2018-05-03T08:56:43.032Z,3.63
2018-05-03T08:59:10.567Z,3.90
2018-05-03T09:01:38.129Z,3.90
2018-05-03T09:04:05.997Z,3.43
2018-05-03T09:06:33.486Z,3.47
2018-05-03T09:09:00.966Z,3.20
2018-05-03T09:11:28.454Z,4.20
2018-05-03T09:13:55.959Z,3.80
2018-05-03T09:16:23.442Z,3.77
2018-05-03T09:18:50.933Z,3.47
2018-05-03T09:21:18.413Z,3.13
2018-05-03T09:23:45.953Z,3.60
2018-05-03T09:26:13.506Z,3.80
2018-05-03T09:28:40.999Z,4.20
2018-05-03T09:31:08.479Z,3.60
2018-05-03T09:33:35.953Z,3.57
2018-05-03T09:36:03.493Z,3.53
2018-05-03T09:38:30.994Z,3.77
2018-05-03T09:40:58.478Z,3.80
2018-05-03T09:43:25.967Z,3.67
2018-05-03T09:45:53.457Z,3.80
2018-05-03T09:48:20.940Z,3.60
2018-05-03T09:50:48.432Z,3.27
2018-05-03T09:53:15.956Z,3.47
2018-05-03T09:55:43.449Z,4.17
2018-05-03T09:58:10.923Z,3.80
2018-05-03T10:00:38.400Z,3.50
2018-05-03T10:03:05.880Z,3.57
2018-05-03T10:05:33.372Z,3.37
2018-05-03T10:08:00.895Z,4.53
2018-05-03T10:10:28.390Z,3.93
2018-05-03T10:12:55.871Z,3.60
2018-05-03T10:15:23.367Z,3.93
2018-05-03T10:17:50.875Z,4.27
2018-05-03T10:20:18.419Z,3.80
2018-05-03T10:22:45.963Z,3.60
2018-05-03T10:25:13.452Z,3.33
2018-05-03T10:27:40.984Z,4.17
2018-05-03T10:30:08.478Z,4.70
2018-05-03T10:32:36.011Z,4.20
2018-05-03T10:35:03.550Z,4.00
2018-05-03T10:37:31.029Z,4.33
2018-05-03T10:39:58.976Z,3.90
2018-05-03T10:42:26.484Z,4.00
2018-05-03T10:44:54.064Z,4.40
2018-05-03T10:47:21.607Z,3.93
2018-05-03T10:49:49.092Z,4.20
2018-05-03T10:52:16.580Z,4.40
2018-05-03T10:54:44.080Z,4.03
2018-05-03T10:57:11.575Z,3.53
2018-05-03T10:59:39.147Z,4.27
2018-05-03T11:02:07.039Z,4.40
2018-05-03T11:04:34.570Z,3.60
2018-05-03T11:07:02.198Z,3.87
2018-05-03T11:09:29.680Z,4.37
2018-05-03T11:11:57.218Z,3.80
2018-05-03T11:14:24.764Z,3.70
2018-05-03T11:16:52.421Z,5.00
2018-05-03T11:19:20.024Z,3.80
2018-05-03T11:21:48.072Z,3.60
2018-05-03T11:24:15.558Z,3.63
2018-05-03T11:26:43.328Z,3.60
2018-05-03T11:29:10.884Z,3.77
2018-05-03T11:31:38.375Z,4.07
2018-05-03T11:34:05.908Z,4.13
2018-05-03T11:36:33.391Z,4.40
2018-05-03T11:39:00.877Z,3.80
2018-05-03T11:41:28.391Z,3.87
2018-05-03T11:43:55.929Z,3.90
2018-05-03T11:46:23.663Z,3.70
2018-05-03T11:48:51.536Z,4.47
2018-05-03T11:51:18.988Z,4.13
2018-05-03T11:53:46.604Z,4.20
2018-05-03T11:56:14.283Z,4.73
2018-05-03T11:58:41.771Z,4.20
2018-05-03T12:01:09.240Z,3.73
2018-05-03T12:03:36.738Z,4.30
2018-05-03T12:06:04.276Z,3.57
2018-05-03T12:08:31.760Z,4.27
2018-05-03T12:10:59.257Z,4.33
2018-05-03T12:13:26.741Z,4.03
2018-05-03T12:15:54.481Z,4.10
2018-05-03T12:18:21.968Z,4.20
2018-05-03T12:20:49.449Z,4.73
2018-05-03T12:23:16.939Z,4.33
2018-05-03T12:25:44.445Z,4.03
2018-05-03T12:28:11.912Z,4.37
2018-05-03T12:30:39.402Z,4.43
2018-05-03T12:33:06.866Z,4.27
2018-05-03T12:35:34.347Z,4.60
2018-05-03T12:38:01.820Z,4.70
2018-05-03T12:40:29.300Z,4.93
2018-05-03T12:42:56.783Z,5.00
2018-05-03T12:45:24.249Z,5.00
2018-05-03T12:47:51.876Z,4.87
2018-05-03T12:50:19.360Z,4.63
2018-05-03T12:52:46.881Z,4.50
2018-05-03T12:55:14.567Z,5.23
2018-05-03T12:57:42.279Z,4.70
2018-05-03T13:00:09.765Z,5.10
2018-05-03T13:02:37.243Z,4.67
2018-05-03T13:05:04.757Z,4.53
2018-05-03T13:07:32.238Z,4.60
2018-05-03T13:09:59.747Z,4.90
2018-05-03T13:12:27.223Z,4.60
2018-05-03T13:14:54.696Z,4.50
2018-05-03T13:17:22.247Z,5.33
2018-05-03T13:19:49.791Z,4.87
2018-05-03T13:22:17.344Z,5.40
2018-05-03T13:24:44.823Z,5.07
2018-05-03T13:27:12.301Z,5.27
2018-05-03T13:29:39.776Z,4.97
2018-05-03T13:32:07.281Z,5.17
2018-05-03T13:34:34.793Z,5.10
2018-05-03T13:37:02.281Z,4.50
2018-05-03T13:39:29.764Z,4.90
2018-05-03T13:41:57.304Z,5.17
2018-05-03T13:44:24.784Z,4.40
2018-05-03T13:46:52.308Z,5.10
2018-05-03T13:49:19.791Z,4.63
2018-05-03T13:51:47.484Z,4.60
2018-05-03T13:54:14.967Z,4.80
2018-05-03T13:56:42.468Z,4.73
2018-05-03T13:59:10.043Z,4.80
2018-05-03T14:01:37.544Z,4.93
2018-05-03T14:04:05.040Z,5.00
2018-05-03T14:06:32.531Z,4.37
2018-05-03T14:08:59.999Z,4.40
2018-05-03T14:11:27.481Z,5.20
2018-05-03T14:13:54.950Z,5.57
2018-05-03T14:16:22.432Z,6.03
2018-05-03T14:18:49.914Z,4.63
2018-05-03T14:21:17.406Z,5.10
2018-05-03T14:23:44.940Z,4.57
2018-05-03T14:26:12.433Z,5.03
2018-05-03T14:28:39.907Z,4.70
2018-05-03T14:31:07.403Z,4.97
2018-05-03T14:33:34.882Z,4.70
2018-05-03T14:36:02.386Z,4.63
2018-05-03T14:38:29.867Z,5.70
2018-05-03T14:40:57.380Z,4.87
2018-05-03T14:43:24.871Z,4.83
2018-05-03T14:45:52.384Z,4.87
2018-05-03T14:48:19.933Z,5.00
2018-05-03T14:50:47.416Z,5.37
2018-05-03T14:53:14.896Z,5.13
2018-05-03T14:55:42.816Z,4.93
2018-05-03T14:58:10.341Z,4.50
2018-05-03T15:00:37.893Z,4.43
2018-05-03T15:03:05.372Z,5.17
2018-05-03T15:05:32.883Z,4.93
2018-05-03T15:08:00.368Z,4.47
2018-05-03T15:10:27.907Z,4.30
2018-05-03T15:12:55.365Z,4.93
2018-05-03T15:15:22.839Z,4.20
2018-05-03T15:17:50.315Z,4.90
2018-05-03T15:20:17.802Z,4.80
2018-05-03T15:22:45.289Z,4.27
2018-05-03T15:25:12.777Z,4.80
2018-05-03T15:27:40.773Z,4.90
2018-05-03T15:30:08.302Z,5.03
2018-05-03T15:32:35.790Z,4.50
2018-05-03T15:35:03.370Z,4.43
2018-05-03T15:37:30.925Z,4.60
2018-05-03T15:39:58.410Z,4.30
2018-05-03T15:42:25.871Z,4.00
2018-05-03T15:44:53.352Z,4.23
2018-05-03T15:47:20.843Z,3.80
2018-05-03T15:49:48.411Z,4.20
2018-05-03T15:52:15.887Z,4.57
2018-05-03T15:54:43.385Z,3.80
2018-05-03T15:57:10.878Z,4.10
2018-05-03T15:59:38.481Z,3.87
2018-05-03T16:02:05.972Z,4.63
2018-05-03T16:04:33.469Z,4.30
2018-05-03T16:07:00.938Z,4.00
2018-05-03T16:09:28.438Z,4.57
2018-05-03T16:11:55.922Z,4.47
2018-05-03T16:14:23.473Z,4.83
2018-05-03T16:16:50.995Z,4.40
2018-05-03T16:19:18.472Z,4.63
2018-05-03T16:21:45.960Z,4.43
2018-05-03T16:24:13.468Z,4.40
2018-05-03T16:26:40.963Z,6.40
2018-05-03T16:29:08.464Z,4.80
2018-05-03T16:31:36.157Z,4.00
2018-05-03T16:34:03.695Z,4.17
2018-05-03T16:36:31.198Z,4.10
2018-05-03T16:38:58.719Z,4.10
2018-05-03T16:41:26.212Z,4.13
2018-05-03T16:43:53.687Z,4.20
2018-05-03T16:46:21.160Z,4.47
2018-05-03T16:48:48.651Z,3.93
2018-05-03T16:51:16.141Z,4.20
2018-05-03T16:53:43.620Z,3.40
2018-05-03T16:56:11.107Z,4.50
2018-05-03T16:58:38.643Z,4.90
2018-05-03T17:01:06.140Z,4.67
2018-05-03T17:03:34.247Z,4.07
2018-05-03T17:06:01.728Z,3.93
2018-05-03T17:08:29.211Z,4.50
2018-05-03T17:10:56.688Z,4.97
2018-05-03T17:13:24.174Z,4.57
2018-05-03T17:15:51.642Z,4.60
2018-05-03T17:18:19.142Z,4.53
2018-05-03T17:20:46.629Z,3.97
2018-05-03T17:23:14.105Z,4.33
2018-05-03T17:25:41.769Z,4.20
2018-05-03T17:28:09.570Z,4.13
2018-05-03T17:30:37.224Z,4.70
2018-05-03T17:33:04.725Z,4.13
2018-05-03T17:35:32.924Z,4.07
2018-05-03T17:38:00.425Z,4.40
2018-05-03T17:40:28.031Z,4.07
2018-05-03T17:42:55.736Z,3.43
2018-05-03T17:45:23.224Z,4.50
2018-05-03T17:47:50.731Z,4.07
2018-05-03T17:50:18.207Z,4.10
2018-05-03T17:52:45.764Z,4.40
2018-05-03T17:55:13.252Z,4.10
2018-05-03T17:57:40.756Z,4.07
2018-05-03T18:00:08.255Z,4.03
2018-05-03T18:02:35.980Z,3.67
2018-05-03T18:05:03.543Z,4.07
2018-05-03T18:07:31.105Z,4.07
2018-05-03T18:09:58.614Z,3.97
2018-05-03T18:12:26.116Z,4.70
2018-05-03T18:14:53.656Z,4.37
2018-05-03T18:17:21.170Z,4.27
2018-05-03T18:19:48.662Z,3.93
2018-05-03T18:22:16.145Z,3.70
2018-05-03T18:24:43.656Z,3.73
2018-05-03T18:27:11.171Z,3.80
2018-05-03T18:29:38.724Z,3.73
2018-05-03T18:32:06.215Z,3.77
2018-05-03T18:34:33.700Z,4.13
2018-05-03T18:37:01.200Z,3.90
2018-05-03T18:39:28.979Z,3.73
2018-05-03T18:41:56.485Z,3.50
2018-05-03T18:44:23.988Z,3.60
2018-05-03T18:46:51.477Z,3.90
2018-05-03T18:49:19.055Z,3.80
2018-05-03T18:51:46.493Z,3.30
2018-05-03T18:54:14.043Z,3.17
2018-05-03T18:56:41.532Z,3.47
2018-05-03T18:59:09.023Z,4.03
2018-05-03T19:01:36.508Z,3.20
2018-05-03T19:04:04.012Z,4.33
2018-05-03T19:06:31.496Z,4.00
2018-05-03T19:08:58.992Z,9.90
2018-05-03T19:11:26.658Z,3.50
2018-05-03T19:13:54.161Z,3.70
2018-05-03T19:16:21.665Z,3.50
2018-05-03T19:18:49.159Z,3.27
2018-05-03T19:21:16.678Z,3.97
2018-05-03T19:23:44.209Z,3.60
2018-05-03T19:26:11.780Z,3.43
2018-05-03T19:28:39.264Z,3.40
2018-05-03T19:31:06.765Z,3.87
2018-05-03T19:33:34.246Z,3.37
2018-05-03T19:36:01.747Z,3.57
2018-05-03T19:38:29.248Z,3.20
2018-05-03T19:40:56.744Z,3.33
2018-05-03T19:43:24.416Z,4.07
2018-05-03T19:45:51.894Z,3.17
2018-05-03T19:48:19.371Z,3.30
2018-05-03T19:50:46.881Z,3.20
2018-05-03T19:53:14.359Z,2.90
2018-05-03T19:55:41.840Z,2.87
2018-05-03T19:58:09.376Z,3.10
2018-05-03T20:00:36.879Z,3.33
2018-05-03T20:03:04.366Z,3.20
2018-05-03T20:05:31.853Z,2.97
2018-05-03T20:07:59.343Z,3.27
2018-05-03T20:10:26.851Z,3.03
2018-05-03T20:12:54.332Z,3.70
2018-05-03T20:15:21.952Z,2.73
2018-05-03T20:17:49.402Z,3.03
2018-05-03T20:20:16.894Z,3.23
2018-05-03T20:22:44.369Z,3.67
2018-05-03T20:25:11.843Z,3.03
2018-05-03T20:27:39.343Z,2.87
2018-05-03T20:30:06.823Z,2.73
2018-05-03T20:32:34.323Z,2.83
2018-05-03T20:35:01.815Z,2.70
2018-05-03T20:37:29.303Z,2.93
2018-05-03T20:39:56.809Z,2.97
2018-05-03T20:42:24.304Z,3.20
2018-05-03T20:44:51.784Z,2.80
2018-05-03T20:47:19.720Z,2.90
2018-05-03T20:49:47.207Z,3.07
2018-05-03T20:52:14.691Z,2.80
2018-05-03T20:54:42.283Z,2.80
2018-05-03T20:57:09.906Z,2.73
2018-05-03T20:59:37.386Z,2.50
2018-05-03T21:02:04.881Z,2.70
2018-05-03T21:04:32.531Z,3.37
2018-05-03T21:07:00.208Z,3.20
2018-05-03T21:09:27.640Z,2.67
2018-05-03T21:11:55.157Z,2.73
2018-05-03T21:14:22.834Z,2.80
2018-05-03T21:16:50.329Z,2.77
2018-05-03T21:19:17.975Z,2.47
2018-05-03T21:21:45.460Z,2.97
2018-05-03T21:24:13.158Z,3.10
2018-05-03T21:26:40.781Z,2.93
2018-05-03T21:29:08.292Z,3.00
2018-05-03T21:31:35.791Z,2.83
2018-05-03T21:34:03.527Z,2.80
2018-05-03T21:36:31.063Z,2.87
2018-05-03T21:38:58.532Z,2.90
2018-05-03T21:41:26.043Z,3.03
2018-05-03T21:43:53.522Z,3.37
2018-05-03T21:46:21.031Z,3.17
2018-05-03T21:48:48.512Z,3.13
2018-05-03T21:51:16.090Z,3.20
2018-05-03T21:53:43.618Z,3.43
2018-05-03T21:56:11.091Z,3.20
2018-05-03T21:58:38.596Z,3.40
2018-05-03T22:01:06.138Z,3.50
2018-05-03T22:03:33.672Z,2.63
2018-05-03T22:06:01.183Z,3.10
2018-05-03T22:08:28.702Z,3.23
2018-05-03T22:10:56.204Z,3.33
2018-05-03T22:13:23.704Z,3.30
2018-05-03T22:15:51.212Z,3.97
2018-05-03T22:18:18.748Z,3.30
2018-05-03T22:20:46.309Z,3.30
2018-05-03T22:23:14.081Z,3.57
2018-05-03T22:25:41.565Z,3.63
2018-05-03T22:28:09.045Z,3.30
2018-05-03T22:30:36.801Z,3.47
2018-05-03T22:33:04.494Z,3.13
2018-05-03T22:35:31.988Z,4.37
2018-05-03T22:37:59.491Z,4.37
2018-05-03T22:40:26.958Z,3.90
2018-05-03T22:42:54.452Z,3.80
2018-05-03T22:45:22.127Z,4.00
2018-05-03T22:47:49.636Z,3.63
2018-05-03T22:50:17.182Z,4.10
2018-05-03T22:52:44.655Z,3.90
2018-05-03T22:55:12.207Z,3.73
2018-05-03T22:57:39.698Z,3.67
2018-05-03T23:00:07.224Z,3.20
2018-05-03T23:02:34.507Z,4.13
2018-05-03T23:05:02.220Z,4.17
2018-05-03T23:07:29.760Z,3.70
2018-05-03T23:09:57.255Z,4.27
2018-05-03T23:12:24.727Z,3.60
2018-05-03T23:14:52.396Z,3.60
2018-05-03T23:17:19.872Z,4.30
2018-05-03T23:19:47.505Z,3.93
2018-05-03T23:22:14.979Z,4.07
2018-05-03T23:24:42.513Z,3.80
2018-05-03T23:27:10.234Z,4.23
2018-05-03T23:29:37.703Z,3.93
2018-05-03T23:32:05.229Z,4.10
2018-05-03T23:34:32.720Z,3.97
2018-05-03T23:37:00.219Z,3.90
2018-05-03T23:39:27.708Z,3.53
2018-05-03T23:41:55.185Z,4.20
2018-05-03T23:44:22.745Z,3.93
2018-05-03T23:46:50.235Z,3.73
2018-05-03T23:49:17.738Z,4.03
2018-05-03T23:51:45.220Z,4.40
2018-05-03T23:54:12.700Z,4.30
2018-05-03T23:56:40.179Z,4.00
2018-05-03T23:59:07.887Z,3.90
